Wetterdaten: Woche 12.07.21 - 18.07.21 (KW28)
Datum Zeit Temp. Aussen Temp. o. S. Temp +5cm Feuchte Auss Luftdruck Regen Sonnenschein Regendauer Solar Windben Empfang
12.07.2021 00:00 18,0 C 16,5 C 15,3 C 90 % 1014,9 hPa 0,0 l/m 0,00 h 0,00 h 0 W/m 0,0 km/h (0 Bft) 96,22 %
12.07.2021 01:00 17,3 C 15,9 C 15,0 C 93 % 1014,6 hPa 0,0 l/m 0,00 h 0,00 h 0 W/m 0,0 km/h (0 Bft) 98,70 %
12.07.2021 02:00 16,6 C 15,6 C 15,0 C 95 % 1014,2 hPa 0,0 l/m 0,00 h 0,00 h 0 W/m 0,0 km/h (0 Bft) 96,15 %
12.07.2021 03:00 16,3 C 15,3 C 15,0 C 96 % 1013,8 hPa 0,0 l/m 0,00 h 0,00 h 0 W/m 0,0 km/h (0 Bft) 96,80 %
12.07.2021 04:00 15,9 C 15,0 C 15,0 C 96 % 1013,4 hPa 0,0 l/m 0,00 h 0,00 h 0 W/m 0,0 km/h (0 Bft) 97,44 %
12.07.2021 05:00 15,7 C 14,9 C 15,2 C 97 % 1013,1 hPa 0,0 l/m 0,00 h 0,00 h 9 W/m 0,0 km/h (0 Bft) 98,65 %
12.07.2021 06:00 15,8 C 15,4 C 15,6 C 97 % 1012,9 hPa 0,0 l/m 0,00 h 0,00 h 40 W/m 0,0 km/h (0 Bft) 99,30 %
12.07.2021 07:00 16,4 C 16,6 C 16,7 C 98 % 1012,6 hPa 0,0 l/m 0,03 h 0,00 h 104 W/m 0,0 km/h (0 Bft) 96,08 %
12.07.2021 08:00 17,7 C 19,0 C 18,4 C 96 % 1012,5 hPa 0,0 l/m 0,57 h 0,00 h 233 W/m 5,0 km/h (1 Bft) 99,72 %
12.07.2021 09:00 21,2 C 26,3 C 22,9 C 85 % 1012,2 hPa 0,0 l/m 1,00 h 0,00 h 510 W/m 6,5 km/h (2 Bft) 97,15 %
12.07.2021 10:00 23,4 C 26,1 C 26,5 C 76 % 1011,5 hPa 0,0 l/m 1,00 h 0,00 h 668 W/m 8,9 km/h (2 Bft) 97,15 %
12.07.2021 11:00 24,9 C 27,0 C 25,6 C 67 % 1011,0 hPa 0,0 l/m 1,00 h 0,00 h 822 W/m 10,6 km/h (2 Bft) 97,94 %
12.07.2021 12:00 25,6 C 26,9 C 26,0 C 63 % 1010,5 hPa 0,0 l/m 0,87 h 0,00 h 615 W/m 9,1 km/h (2 Bft) 97,88 %
12.07.2021 13:00 26,1 C 27,1 C 26,2 C 62 % 1010,3 hPa 0,0 l/m 0,83 h 0,00 h 558 W/m 10,2 km/h (2 Bft) 97,51 %
12.07.2021 14:00 26,2 C 26,3 C 24,1 C 61 % 1010,2 hPa 0,0 l/m 0,53 h 0,00 h 446 W/m 11,7 km/h (2 Bft) 97,01 %
12.07.2021 15:00 25,6 C 25,7 C 23,0 C 62 % 1009,8 hPa 0,0 l/m 0,33 h 0,00 h 379 W/m 11,8 km/h (2 Bft) 98,65 %
12.07.2021 16:00 26,5 C 27,6 C 23,8 C 61 % 1009,3 hPa 0,0 l/m 1,00 h 0,00 h 518 W/m 12,9 km/h (3 Bft) 98,21 %
12.07.2021 17:00 25,9 C 25,5 C 22,9 C 62 % 1009,2 hPa 0,0 l/m 0,33 h 0,00 h 224 W/m 12,9 km/h (3 Bft) 95,52 %
12.07.2021 18:00 24,7 C 23,7 C 21,4 C 66 % 1009,2 hPa 0,0 l/m 0,00 h 0,00 h 81 W/m 8,0 km/h (2 Bft) 99,27 %
12.07.2021 19:00 24,1 C 23,3 C 20,6 C 68 % 1009,3 hPa 0,0 l/m 0,00 h 0,00 h 58 W/m 4,9 km/h (1 Bft) 98,43 %
12.07.2021 20:00 23,6 C 22,1 C 19,6 C 73 % 1009,2 hPa 0,0 l/m 0,00 h 0,00 h 44 W/m 1,2 km/h (1 Bft) 95,09 %
12.07.2021 21:00 22,3 C 20,7 C 18,2 C 79 % 1009,4 hPa 0,0 l/m 0,10 h 0,00 h 16 W/m 1,8 km/h (1 Bft) 99,29 %
12.07.2021 22:00 21,1 C 19,5 C 17,3 C 83 % 1009,9 hPa 0,0 l/m 0,00 h 0,00 h 0 W/m 0,5 km/h (0 Bft) 98,93 %
12.07.2021 23:00 20,4 C 19,4 C 17,4 C 86 % 1009,7 hPa 0,0 l/m 0,00 h 0,00 h 0 W/m 1,5 km/h (1 Bft) 95,88 %
13.07.2021 00:00 20,1 C 19,4 C 17,4 C 88 % 1009,7 hPa 0,0 l/m 0,00 h 0,00 h 0 W/m 1,8 km/h (1 Bft) 97,67 %
13.07.2021 01:00 20,0 C 19,0 C 17,5 C 88 % 1009,4 hPa 0,0 l/m 0,00 h 0,00 h 0 W/m 1,0 km/h (0 Bft) 97,86 %
13.07.2021 02:00 19,9 C 18,9 C 17,4 C 89 % 1009,5 hPa 0,0 l/m 0,00 h 0,00 h 0 W/m 2,5 km/h (1 Bft) 97,09 %
13.07.2021 03:00 19,7 C 18,5 C 16,6 C 90 % 1009,6 hPa 0,4 l/m 0,00 h 0,63 h 0 W/m 2,0 km/h (1 Bft) 99,71 %
13.07.2021 04:00 18,9 C 17,6 C 16,4 C 95 % 1009,6 hPa 1,0 l/m 0,00 h 0,80 h 0 W/m 2,1 km/h (1 Bft) 96,54 %
13.07.2021 05:00 18,5 C 17,0 C 16,7 C 97 % 1009,2 hPa 2,2 l/m 0,00 h 0,87 h 0 W/m 1,8 km/h (1 Bft) 95,46 %
13.07.2021 06:00 18,3 C 17,1 C 17,0 C 98 % 1009,0 hPa 0,6 l/m 0,00 h 0,63 h 8 W/m 2,2 km/h (1 Bft) 99,24 %
13.07.2021 07:00 18,0 C 16,8 C 17,3 C 98 % 1009,1 hPa 5,0 l/m 0,00 h 0,93 h 16 W/m 2,4 km/h (1 Bft) 97,26 %
13.07.2021 08:00 17,8 C 16,8 C 17,4 C 99 % 1009,1 hPa 0,2 l/m 0,00 h 0,80 h 59 W/m 2,8 km/h (1 Bft) 98,15 %
13.07.2021 09:00 18,0 C 17,3 C 17,8 C 99 % 1009,3 hPa 0,4 l/m 0,00 h 0,53 h 77 W/m 6,6 km/h (2 Bft) 99,57 %
13.07.2021 10:00 18,3 C 17,9 C 18,6 C 99 % 1009,3 hPa 0,4 l/m 0,00 h 0,77 h 122 W/m 10,0 km/h (2 Bft) 96,66 %
13.07.2021 11:00 18,8 C 18,1 C 19,1 C 99 % 1009,1 hPa 0,2 l/m 0,00 h 0,17 h 93 W/m 10,4 km/h (2 Bft) 97,70 %
13.07.2021 12:00 19,4 C 19,4 C 19,9 C 100 % 1009,3 hPa 0,0 l/m 0,00 h 0,03 h 162 W/m 11,2 km/h (2 Bft) 96,65 %
13.07.2021 13:00 20,3 C 20,7 C 20,7 C 98 % 1009,4 hPa 0,0 l/m 0,00 h 0,00 h 241 W/m 11,0 km/h (2 Bft) 95,25 %
13.07.2021 14:00 20,5 C 20,6 C 20,6 C 96 % 1009,4 hPa 0,0 l/m 0,00 h 0,00 h 148 W/m 12,2 km/h (3 Bft) 96,79 %
13.07.2021 15:00 21,3 C 21,7 C 21,4 C 95 % 1009,2 hPa 0,0 l/m 0,00 h 0,00 h 259 W/m 12,0 km/h (2 Bft) 98,08 %
13.07.2021 16:00 21,8 C 21,2 C 21,6 C 92 % 1009,1 hPa 1,6 l/m 0,00 h 0,23 h 119 W/m 18,1 km/h (3 Bft) 98,72 %
13.07.2021 17:00 19,7 C 18,5 C 19,6 C 97 % 1009,2 hPa 3,2 l/m 0,00 h 0,57 h 64 W/m 11,2 km/h (2 Bft) 98,43 %
13.07.2021 18:00 20,3 C 19,8 C 20,5 C 99 % 1009,2 hPa 0,0 l/m 0,00 h 0,00 h 105 W/m 11,3 km/h (2 Bft) 97,72 %
13.07.2021 19:00 20,4 C 19,8 C 20,6 C 99 % 1009,3 hPa 0,0 l/m 0,00 h 0,00 h 47 W/m 12,8 km/h (3 Bft) 99,00 %
13.07.2021 20:00 20,1 C 19,4 C 20,6 C 98 % 1009,3 hPa 0,0 l/m 0,00 h 0,00 h 25 W/m 12,5 km/h (3 Bft) 97,45 %
13.07.2021 21:00 20,0 C 19,3 C 20,6 C 98 % 1009,2 hPa 0,0 l/m 0,00 h 0,00 h 9 W/m 15,7 km/h (3 Bft) 98,09 %
13.07.2021 22:00 19,8 C 18,9 C 20,6 C 98 % 1009,3 hPa 0,0 l/m 0,00 h 0,00 h 0 W/m 15,6 km/h (3 Bft) 97,59 %
13.07.2021 23:00 19,7 C 18,9 C 20,6 C 99 % 1009,1 hPa 0,0 l/m 0,00 h 0,00 h 0 W/m 13,2 km/h (3 Bft) 95,32 %
14.07.2021 00:00 19,4 C 18,4 C 20,6 C 99 % 1009,2 hPa 3,4 l/m 0,00 h 0,47 h 0 W/m 13,3 km/h (3 Bft) 96,46 %
14.07.2021 01:00 19,1 C 18,0 C 20,6 C 100 % 1009,5 hPa 0,4 l/m 0,00 h 0,60 h 0 W/m 12,0 km/h (2 Bft) 96,80 %
14.07.2021 02:00 19,0 C 17,8 C 20,6 C 100 % 1009,5 hPa 2,8 l/m 0,00 h 1,00 h 0 W/m 13,9 km/h (3 Bft) 94,66 %
14.07.2021 03:00 18,9 C 17,8 C 20,7 C 100 % 1009,2 hPa 3,8 l/m 0,00 h 0,97 h 0 W/m 16,5 km/h (3 Bft) 96,94 %
14.07.2021 04:00 18,8 C 17,8 C 21,1 C 100 % 1009,0 hPa 0,6 l/m 0,00 h 0,83 h 0 W/m 14,8 km/h (3 Bft) 96,73 %
14.07.2021 05:00 18,6 C 17,8 C 21,1 C 100 % 1009,0 hPa 0,6 l/m 0,00 h 0,90 h 0 W/m 10,7 km/h (2 Bft) 95,23 %
14.07.2021 06:00 18,5 C 17,8 C 21,1 C 100 % 1008,9 hPa 2,4 l/m 0,00 h 1,00 h 7 W/m 12,8 km/h (3 Bft) 99,70 %
14.07.2021 07:00 18,5 C 17,8 C 21,5 C 100 % 1009,1 hPa 1,0 l/m 0,00 h 0,90 h 18 W/m 13,3 km/h (3 Bft) 98,37 %
14.07.2021 08:00 18,6 C 17,8 C 21,7 C 100 % 1009,2 hPa 1,0 l/m 0,00 h 0,60 h 37 W/m 14,0 km/h (3 Bft) 96,68 %
14.07.2021 09:00 18,5 C 17,8 C 21,8 C 100 % 1009,4 hPa 1,2 l/m 0,00 h 0,93 h 39 W/m 15,2 km/h (3 Bft) 98,45 %
14.07.2021 10:00 18,5 C 17,8 C 22,3 C 100 % 1009,3 hPa 1,8 l/m 0,00 h 0,97 h 82 W/m 16,5 km/h (3 Bft) 96,28 %
14.07.2021 11:00 18,3 C 17,3 C 22,2 C 100 % 1009,2 hPa 6,4 l/m 0,00 h 0,87 h 49 W/m 17,2 km/h (3 Bft) 95,37 %
14.07.2021 12:00 18,4 C 17,3 C 22,4 C 100 % 1009,3 hPa 6,6 l/m 0,00 h 0,90 h 44 W/m 15,4 km/h (3 Bft) 97,05 %
14.07.2021 13:00 18,4 C 17,6 C 22,8 C 100 % 1009,4 hPa 2,4 l/m 0,00 h 0,70 h 57 W/m 15,9 km/h (3 Bft) 95,30 %
14.07.2021 14:00 18,6 C 17,9 C 23,0 C 100 % 1009,3 hPa 0,2 l/m 0,00 h 0,00 h 64 W/m 18,2 km/h (3 Bft) 95,97 %
14.07.2021 15:00 18,9 C 18,3 C 23,5 C 100 % 1008,8 hPa 0,0 l/m 0,00 h 0,00 h 73 W/m 22,1 km/h (4 Bft) 97,41 %
14.07.2021 16:00 18,8 C 18,3 C 23,6 C 100 % 1008,7 hPa 0,0 l/m 0,00 h 0,20 h 58 W/m 21,9 km/h (4 Bft) 94,95 %
14.07.2021 17:00 19,0 C 18,5 C 23,9 C 100 % 1008,7 hPa 0,2 l/m 0,00 h 0,73 h 61 W/m 17,0 km/h (3 Bft) 96,52 %
14.07.2021 18:00 18,9 C 17,9 C 23,9 C 100 % 1008,0 hPa 3,6 l/m 0,00 h 1,00 h 15 W/m 13,7 km/h (3 Bft) 95,88 %
14.07.2021 19:00 18,7 C 17,8 C 23,6 C 100 % 1007,0 hPa 5,4 l/m 0,00 h 0,83 h 13 W/m 23,5 km/h (4 Bft) 94,96 %
14.07.2021 20:00 18,9 C 17,8 C 23,9 C 100 % 1007,4 hPa 10,2 l/m 0,00 h 0,83 h 7 W/m 18,1 km/h (3 Bft) 96,37 %
14.07.2021 21:00 18,3 C 17,2 C 23,4 C 100 % 1007,8 hPa 3,2 l/m 0,00 h 0,67 h 0 W/m 5,4 km/h (1 Bft) 96,92 %
14.07.2021 22:00 17,2 C 16,4 C 22,6 C 100 % 1008,7 hPa 0,0 l/m 0,00 h 0,00 h 0 W/m 5,7 km/h (1 Bft) 95,16 %
14.07.2021 23:00 17,0 C 16,1 C 22,4 C 100 % 1009,2 hPa 0,0 l/m 0,00 h 0,00 h 0 W/m 3,1 km/h (1 Bft) 96,58 %
15.07.2021 00:00 17,0 C 16,1 C 22,4 C 100 % 1009,8 hPa 0,0 l/m 0,00 h 0,00 h 0 W/m 1,3 km/h (1 Bft) 96,33 %
15.07.2021 01:00 16,9 C 16,1 C 22,4 C 100 % 1010,2 hPa 0,0 l/m 0,00 h 0,00 h 0 W/m 0,9 km/h (0 Bft) 95,30 %
15.07.2021 02:00 17,0 C 16,1 C 22,5 C 100 % 1010,6 hPa 0,0 l/m 0,00 h 0,00 h 0 W/m 0,1 km/h (0 Bft) 97,16 %
15.07.2021 03:00 17,1 C 16,1 C 22,6 C 100 % 1010,6 hPa 0,0 l/m 0,00 h 0,00 h 0 W/m 0,3 km/h (0 Bft) 96,09 %
15.07.2021 04:00 17,1 C 16,3 C 22,7 C 100 % 1010,9 hPa 0,0 l/m 0,00 h 0,03 h 0 W/m 0,2 km/h (0 Bft) 95,43 %
15.07.2021 05:00 17,0 C 16,1 C 22,5 C 100 % 1010,8 hPa 0,2 l/m 0,00 h 0,23 h 0 W/m 0,5 km/h (0 Bft) 96,51 %
15.07.2021 06:00 17,0 C 16,1 C 22,4 C 100 % 1011,4 hPa 0,0 l/m 0,00 h 0,10 h 27 W/m 2,6 km/h (1 Bft) 95,69 %
15.07.2021 07:00 16,8 C 16,4 C 22,3 C 100 % 1011,5 hPa 0,0 l/m 0,00 h 0,00 h 37 W/m 3,0 km/h (1 Bft) 95,41 %
15.07.2021 08:00 16,9 C 16,7 C 22,4 C 100 % 1012,1 hPa 0,0 l/m 0,00 h 0,00 h 42 W/m 3,1 km/h (1 Bft) 96,95 %
15.07.2021 09:00 17,1 C 17,0 C 22,8 C 100 % 1012,8 hPa 0,0 l/m 0,00 h 0,00 h 77 W/m 3,0 km/h (1 Bft) 96,26 %
15.07.2021 10:00 18,1 C 19,5 C 23,9 C 100 % 1012,8 hPa 0,0 l/m 0,23 h 0,00 h 269 W/m 4,9 km/h (1 Bft) 96,72 %
15.07.2021 11:00 19,2 C 20,7 C 24,7 C 100 % 1013,2 hPa 0,0 l/m 0,07 h 0,00 h 340 W/m 5,2 km/h (1 Bft) 98,71 %
15.07.2021 12:00 21,0 C 22,0 C 26,0 C 94 % 1013,4 hPa 0,0 l/m 0,53 h 0,00 h 369 W/m 8,0 km/h (2 Bft) 98,56 %
15.07.2021 13:00 21,2 C 21,6 C 26,4 C 91 % 1013,8 hPa 0,0 l/m 0,10 h 0,00 h 246 W/m 10,1 km/h (2 Bft) 97,93 %
15.07.2021 14:00 21,9 C 22,9 C 27,0 C 90 % 1014,1 hPa 0,0 l/m 0,27 h 0,00 h 377 W/m 12,7 km/h (3 Bft) 96,93 %
15.07.2021 15:00 21,2 C 20,2 C 24,9 C 91 % 1014,4 hPa 0,0 l/m 0,00 h 0,00 h 91 W/m 16,4 km/h (3 Bft) 99,29 %
15.07.2021 16:00 20,4 C 20,7 C 24,6 C 96 % 1014,9 hPa 0,0 l/m 0,17 h 0,10 h 249 W/m 17,8 km/h (3 Bft) 98,93 %
15.07.2021 17:00 20,3 C 19,8 C 24,1 C 94 % 1015,3 hPa 0,0 l/m 0,00 h 0,00 h 92 W/m 16,9 km/h (3 Bft) 96,44 %
15.07.2021 18:00 19,7 C 19,1 C 23,5 C 95 % 1015,6 hPa 0,0 l/m 0,00 h 0,00 h 69 W/m 18,1 km/h (3 Bft) 99,26 %
15.07.2021 19:00 19,4 C 18,7 C 22,9 C 95 % 1015,8 hPa 0,0 l/m 0,00 h 0,00 h 38 W/m 17,7 km/h (3 Bft) 96,42 %
15.07.2021 20:00 18,8 C 18,0 C 22,0 C 96 % 1016,5 hPa 0,0 l/m 0,00 h 0,00 h 9 W/m 18,2 km/h (3 Bft) 95,05 %
15.07.2021 21:00 18,3 C 17,8 C 21,7 C 97 % 1017,0 hPa 0,0 l/m 0,00 h 0,00 h 7 W/m 14,6 km/h (3 Bft) 97,57 %
15.07.2021 22:00 18,2 C 17,7 C 21,7 C 97 % 1017,6 hPa 0,0 l/m 0,00 h 0,00 h 0 W/m 11,7 km/h (2 Bft) 96,66 %
15.07.2021 23:00 18,1 C 17,2 C 21,7 C 97 % 1018,1 hPa 0,0 l/m 0,00 h 0,00 h 0 W/m 10,7 km/h (2 Bft) 97,37 %
16.07.2021 00:00 18,0 C 17,2 C 21,7 C 96 % 1018,5 hPa 0,0 l/m 0,00 h 0,00 h 0 W/m 13,7 km/h (3 Bft) 99,55 %
16.07.2021 01:00 17,6 C 17,0 C 21,3 C 96 % 1018,8 hPa 0,0 l/m 0,00 h 0,00 h 0 W/m 12,8 km/h (3 Bft) 97,07 %
16.07.2021 02:00 17,3 C 16,7 C 21,0 C 95 % 1019,1 hPa 0,0 l/m 0,00 h 0,00 h 0 W/m 14,2 km/h (3 Bft) 97,73 %
16.07.2021 03:00 16,9 C 16,2 C 20,6 C 95 % 1019,3 hPa 0,0 l/m 0,00 h 0,00 h 0 W/m 17,2 km/h (3 Bft) 99,65 %
16.07.2021 04:00 16,5 C 15,9 C 20,2 C 95 % 1019,4 hPa 0,0 l/m 0,00 h 0,00 h 0 W/m 16,3 km/h (3 Bft) 97,06 %
16.07.2021 05:00 16,3 C 15,6 C 19,9 C 94 % 1019,8 hPa 0,2 l/m 0,00 h 0,07 h 0 W/m 12,3 km/h (3 Bft) 98,15 %
16.07.2021 06:00 16,1 C 15,6 C 19,7 C 95 % 1020,3 hPa 0,0 l/m 0,00 h 0,00 h 19 W/m 10,8 km/h (2 Bft) 99,01 %
16.07.2021 07:00 16,1 C 15,7 C 19,8 C 95 % 1020,6 hPa 0,0 l/m 0,00 h 0,00 h 62 W/m 13,4 km/h (3 Bft) 95,73 %
16.07.2021 08:00 16,1 C 15,8 C 19,6 C 94 % 1020,9 hPa 0,0 l/m 0,00 h 0,00 h 82 W/m 15,3 km/h (3 Bft) 98,03 %
16.07.2021 09:00 16,2 C 16,4 C 20,0 C 93 % 1021,4 hPa 0,0 l/m 0,00 h 0,00 h 171 W/m 16,4 km/h (3 Bft) 96,80 %
16.07.2021 10:00 17,3 C 18,0 C 20,9 C 88 % 1021,8 hPa 0,0 l/m 0,37 h 0,00 h 280 W/m 14,2 km/h (3 Bft) 96,37 %
16.07.2021 11:00 18,2 C 18,6 C 20,4 C 84 % 1022,2 hPa 0,0 l/m 0,00 h 0,00 h 239 W/m 13,2 km/h (3 Bft) 96,52 %
16.07.2021 12:00 18,3 C 18,6 C 19,5 C 84 % 1022,5 hPa 0,0 l/m 0,03 h 0,00 h 296 W/m 14,3 km/h (3 Bft) 97,88 %
16.07.2021 13:00 18,9 C 19,4 C 19,6 C 82 % 1022,7 hPa 0,0 l/m 0,33 h 0,00 h 367 W/m 16,0 km/h (3 Bft) 99,72 %
16.07.2021 14:00 19,1 C 19,4 C 19,0 C 81 % 1022,9 hPa 0,0 l/m 0,17 h 0,00 h 272 W/m 15,0 km/h (3 Bft) 97,94 %
16.07.2021 15:00 19,3 C 19,6 C 18,9 C 80 % 1023,0 hPa 0,0 l/m 0,00 h 0,00 h 234 W/m 11,1 km/h (2 Bft) 95,94 %
16.07.2021 16:00 19,7 C 19,9 C 18,9 C 79 % 1023,0 hPa 0,0 l/m 0,00 h 0,00 h 228 W/m 13,1 km/h (3 Bft) 98,24 %
16.07.2021 17:00 20,1 C 20,8 C 19,1 C 79 % 1023,0 hPa 0,0 l/m 0,13 h 0,00 h 253 W/m 14,2 km/h (3 Bft) 98,05 %
16.07.2021 18:00 20,2 C 20,4 C 18,9 C 78 % 1023,0 hPa 0,0 l/m 0,13 h 0,00 h 189 W/m 11,8 km/h (2 Bft) 98,16 %
16.07.2021 19:00 20,1 C 19,8 C 18,5 C 77 % 1023,1 hPa 0,0 l/m 0,23 h 0,00 h 133 W/m 11,1 km/h (2 Bft) 98,65 %
16.07.2021 20:00 19,7 C 19,0 C 17,8 C 81 % 1023,4 hPa 0,0 l/m 0,00 h 0,00 h 45 W/m 4,6 km/h (1 Bft) 95,94 %
16.07.2021 21:00 19,3 C 18,4 C 17,4 C 85 % 1023,9 hPa 0,0 l/m 0,00 h 0,00 h 10 W/m 1,2 km/h (1 Bft) 97,86 %
16.07.2021 22:00 19,1 C 18,1 C 17,3 C 86 % 1024,4 hPa 0,0 l/m 0,00 h 0,00 h 0 W/m 1,8 km/h (1 Bft) 98,65 %
16.07.2021 23:00 18,7 C 17,8 C 17,3 C 87 % 1024,6 hPa 0,0 l/m 0,00 h 0,00 h 0 W/m 5,3 km/h (1 Bft) 98,57 %
17.07.2021 00:00 18,4 C 17,5 C 17,3 C 89 % 1024,5 hPa 0,0 l/m 0,00 h 0,00 h 0 W/m 6,4 km/h (2 Bft) 94,95 %
17.07.2021 01:00 18,0 C 17,2 C 17,3 C 90 % 1024,6 hPa 0,0 l/m 0,00 h 0,00 h 0 W/m 6,7 km/h (2 Bft) 97,09 %
17.07.2021 02:00 17,8 C 16,9 C 17,1 C 91 % 1024,7 hPa 0,0 l/m 0,00 h 0,00 h 0 W/m 6,1 km/h (2 Bft) 96,72 %
17.07.2021 03:00 17,4 C 16,7 C 16,7 C 91 % 1024,7 hPa 0,0 l/m 0,00 h 0,00 h 0 W/m 8,7 km/h (2 Bft) 96,43 %
17.07.2021 04:00 17,1 C 16,4 C 16,7 C 92 % 1024,6 hPa 0,0 l/m 0,00 h 0,00 h 0 W/m 7,0 km/h (2 Bft) 97,63 %
17.07.2021 05:00 17,0 C 16,1 C 16,7 C 93 % 1024,6 hPa 0,0 l/m 0,00 h 0,00 h 4 W/m 6,5 km/h (2 Bft) 98,86 %
17.07.2021 06:00 16,9 C 16,4 C 16,9 C 94 % 1024,8 hPa 0,0 l/m 0,00 h 0,00 h 19 W/m 8,4 km/h (2 Bft) 98,19 %
17.07.2021 07:00 17,0 C 16,8 C 17,3 C 94 % 1024,8 hPa 0,0 l/m 0,00 h 0,00 h 66 W/m 12,1 km/h (2 Bft) 97,79 %
17.07.2021 08:00 17,4 C 17,3 C 17,8 C 91 % 1025,1 hPa 0,0 l/m 0,00 h 0,00 h 104 W/m 11,6 km/h (2 Bft) 98,79 %
17.07.2021 09:00 17,9 C 17,9 C 18,0 C 89 % 1025,5 hPa 0,0 l/m 0,00 h 0,00 h 136 W/m 11,4 km/h (2 Bft) 95,41 %
17.07.2021 10:00 19,0 C 20,3 C 20,5 C 87 % 1025,6 hPa 0,0 l/m 0,57 h 0,00 h 357 W/m 12,8 km/h (3 Bft) 96,61 %
17.07.2021 11:00 21,4 C 24,1 C 23,6 C 79 % 1025,4 hPa 0,0 l/m 0,97 h 0,00 h 792 W/m 15,0 km/h (3 Bft) 99,52 %
17.07.2021 12:00 23,5 C 25,6 C 28,3 C 73 % 1025,2 hPa 0,0 l/m 1,00 h 0,00 h 857 W/m 17,8 km/h (3 Bft) 96,63 %
17.07.2021 13:00 24,6 C 26,1 C 30,0 C 70 % 1025,0 hPa 0,0 l/m 1,00 h 0,00 h 892 W/m 21,3 km/h (4 Bft) 97,16 %
17.07.2021 14:00 25,7 C 28,3 C 23,8 C 68 % 1024,7 hPa 0,0 l/m 1,00 h 0,00 h 902 W/m 18,9 km/h (3 Bft) 98,79 %
17.07.2021 15:00 26,5 C 28,9 C 23,5 C 65 % 1024,4 hPa 0,0 l/m 1,00 h 0,00 h 842 W/m 21,3 km/h (4 Bft) 96,94 %
17.07.2021 16:00 27,0 C 31,2 C 24,2 C 63 % 1024,0 hPa 0,0 l/m 1,00 h 0,00 h 737 W/m 20,3 km/h (4 Bft) 98,73 %
17.07.2021 17:00 27,3 C 31,7 C 24,7 C 61 % 1023,8 hPa 0,0 l/m 0,95 h 0,00 h 600 W/m 21,4 km/h (4 Bft) 97,39 %
17.07.2021 18:00 27,1 C 31,4 C 24,4 C 58 % 1023,5 hPa 0,0 l/m 1,05 h 0,00 h 415 W/m 23,6 km/h (4 Bft) 99,19 %
17.07.2021 19:00 25,9 C 26,9 C 22,5 C 58 % 1023,6 hPa 0,0 l/m 0,87 h 0,00 h 239 W/m 20,1 km/h (4 Bft) 97,51 %
17.07.2021 20:00 24,1 C 23,3 C 20,7 C 61 % 1023,8 hPa 0,0 l/m 0,00 h 0,00 h 37 W/m 17,6 km/h (3 Bft) 97,37 %
17.07.2021 21:00 22,9 C 21,7 C 19,3 C 68 % 1024,2 hPa 0,0 l/m 0,00 h 0,00 h 13 W/m 11,3 km/h (2 Bft) 98,15 %
17.07.2021 22:00 21,5 C 20,0 C 17,8 C 75 % 1024,4 hPa 0,0 l/m 0,00 h 0,00 h 0 W/m 5,0 km/h (1 Bft) 97,15 %
17.07.2021 23:00 20,1 C 18,7 C 16,7 C 81 % 1024,5 hPa 0,0 l/m 0,00 h 0,00 h 0 W/m 5,8 km/h (2 Bft) 98,65 %
18.07.2021 00:00 19,1 C 18,0 C 16,3 C 85 % 1024,5 hPa 0,0 l/m 0,00 h 0,00 h 0 W/m 8,7 km/h (2 Bft) 98,79 %
18.07.2021 01:00 18,1 C 17,0 C 15,6 C 87 % 1024,3 hPa 0,0 l/m 0,00 h 0,00 h 0 W/m 6,0 km/h (2 Bft) 95,66 %
18.07.2021 02:00 17,3 C 16,1 C 15,0 C 90 % 1024,2 hPa 0,0 l/m 0,00 h 0,00 h 0 W/m 2,5 km/h (1 Bft) 96,86 %
18.07.2021 03:00 16,6 C 15,6 C 15,0 C 92 % 1024,1 hPa 0,0 l/m 0,00 h 0,00 h 0 W/m 3,2 km/h (1 Bft) 97,78 %
18.07.2021 04:00 16,1 C 15,0 C 14,8 C 94 % 1024,0 hPa 0,0 l/m 0,00 h 0,00 h 0 W/m 3,6 km/h (1 Bft) 97,78 %
18.07.2021 05:00 15,6 C 14,5 C 14,5 C 94 % 1023,9 hPa 0,0 l/m 0,00 h 0,00 h 6 W/m 2,1 km/h (1 Bft) 96,73 %
18.07.2021 06:00 15,3 C 14,5 C 14,7 C 95 % 1024,0 hPa 0,0 l/m 0,00 h 0,00 h 21 W/m 1,3 km/h (1 Bft) 98,97 %
18.07.2021 07:00 15,9 C 15,6 C 15,9 C 96 % 1024,2 hPa 0,0 l/m 0,00 h 0,00 h 45 W/m 2,8 km/h (1 Bft) 99,43 %
18.07.2021 08:00 17,4 C 19,9 C 18,5 C 97 % 1024,4 hPa 0,0 l/m 0,97 h 0,00 h 317 W/m 6,6 km/h (2 Bft) 93,90 %
18.07.2021 09:00 20,9 C 26,3 C 23,3 C 82 % 1024,4 hPa 0,0 l/m 1,00 h 0,00 h 516 W/m 9,3 km/h (2 Bft) 98,12 %
18.07.2021 10:00 22,9 C 25,5 C 25,9 C 72 % 1024,2 hPa 0,0 l/m 1,00 h 0,00 h 666 W/m 10,0 km/h (2 Bft) 98,79 %
18.07.2021 11:00 24,0 C 26,0 C 24,9 C 70 % 1024,0 hPa 0,0 l/m 1,00 h 0,00 h 796 W/m 11,1 km/h (2 Bft) 98,65 %
18.07.2021 12:00 25,4 C 27,1 C 30,1 C 66 % 1023,6 hPa 0,0 l/m 1,00 h 0,00 h 871 W/m 15,9 km/h (3 Bft) 95,66 %
18.07.2021 13:00 26,5 C 27,9 C 31,9 C 63 % 1023,3 hPa 0,0 l/m 1,00 h 0,00 h 898 W/m 14,5 km/h (3 Bft) 97,43 %
18.07.2021 14:00 27,3 C 29,3 C 25,2 C 63 % 1022,8 hPa 0,0 l/m 1,00 h 0,00 h 915 W/m 18,9 km/h (3 Bft) 99,08 %
18.07.2021 15:00 28,2 C 30,1 C 24,9 C 61 % 1022,4 hPa 0,0 l/m 1,00 h 0,00 h 888 W/m 18,3 km/h (3 Bft) 96,15 %
18.07.2021 16:00 28,1 C 30,2 C 25,1 C 60 % 1022,0 hPa 0,0 l/m 0,63 h 0,00 h 516 W/m 18,7 km/h (3 Bft) 97,37 %
18.07.2021 17:00 28,4 C 31,2 C 25,4 C 59 % 1021,7 hPa 0,0 l/m 0,73 h 0,00 h 480 W/m 17,4 km/h (3 Bft) 99,36 %
18.07.2021 18:00 28,5 C 32,1 C 25,7 C 60 % 1021,3 hPa 0,0 l/m 0,93 h 0,00 h 423 W/m 17,2 km/h (3 Bft) 95,92 %
18.07.2021 19:00 27,2 C 27,6 C 23,6 C 60 % 1021,3 hPa 0,0 l/m 0,80 h 0,00 h 220 W/m 21,0 km/h (4 Bft) 97,69 %
18.07.2021 20:00 25,3 C 24,2 C 21,8 C 64 % 1021,4 hPa 0,0 l/m 0,00 h 0,00 h 37 W/m 17,0 km/h (3 Bft) 98,73 %
18.07.2021 21:00 23,6 C 22,4 C 20,1 C 70 % 1021,5 hPa 0,0 l/m 0,00 h 0,00 h 14 W/m 13,1 km/h (3 Bft) 96,73 %
18.07.2021 22:00 21,8 C 20,6 C 18,6 C 73 % 1022,1 hPa 0,0 l/m 0,00 h 0,00 h 0 W/m 13,7 km/h (3 Bft) 98,51 %
18.07.2021 23:00 20,3 C 19,0 C 17,1 C 75 % 1022,2 hPa 0,0 l/m 0,00 h 0,00 h 0 W/m 8,3 km/h (2 Bft) 96,16 %
Min-Datum _ 18.07.21 12.07.21 18.07.21 17.07.21 14.07.21 - - - - 12.07.21 17.07.21
_ Min-Zeit 06:16 05:08 04:08 18:20 19:36 - - - - 00:00 00:02
Minimum _ 15,2 C 14,4 C 14,5 C 57 % 1006,5 hPa - - - - 0,0 km/h (0 Bft) 10,53 %
Max-Datum _ 18.07.21 18.07.21 18.07.21 13.07.21 17.07.21 14.07.21 17.07.21 13.07.21 18.07.21 14.07.21 12.07.21
_ Max-Zeit 17:42 17:36 12:32 12:30 09:44 20:06 17:45 04:05 15:16 16:14 00:07
Maximum _ 28,9 C 33,3 C 33,9 C 100 % 1025,7 hPa 10,2 l/m 0,08 h 0,08 h 995 W/m 41,8 km/h
NW (6 Bft)
100,00 %
Durchschnitt _ 19,9 C 19,8 C 20,8 C 88 % 1016,1 hPa #72,8 l/m #30:50 h #23:24 h 240 W/m 10,3 km/h (2 Bft) 97,36 %
© 2021 W. Hausmann